FAB1331 SBYS-SBYS

Flight info

Callsign FAB1331
Flight time 0h 34m
Altitude 14500
Route DCT 2219S04736W DCT
Aircraft TUCA/L-SDFG/S

Departure

Time 2026-04-23 03:09
Airport Campo Fontenelle (SBYS)

Arrival

Time 2026-04-23 03:43
Airport Campo Fontenelle (SBYS)
Time Latitude Longitude Altitude Speed Heading
2026-04-23 03:08 -22.19303 -47.61531 13574 ft 172 kts 339°
2026-04-23 03:09 -22.19029 -47.61600 13613 ft 171 kts 339°
2026-04-23 03:09 -22.17885 -47.61890 13775 ft 167 kts 339°
2026-04-23 03:09 -22.16749 -47.62174 13914 ft 167 kts 339°
2026-04-23 03:09 -22.15611 -47.62462 13970 ft 170 kts 338°
2026-04-23 03:10 -22.14731 -47.63189 13819 ft 165 kts 287°
2026-04-23 03:10 -22.14972 -47.64452 13195 ft 194 kts 237°
2026-04-23 03:10 -22.16118 -47.65180 13156 ft 197 kts 198°
2026-04-23 03:10 -22.17357 -47.65601 13328 ft 174 kts 216°
2026-04-23 03:11 -22.18363 -47.66234 13603 ft 164 kts 216°
2026-04-23 03:11 -22.19353 -47.66818 13776 ft 162 kts 214°
2026-04-23 03:11 -22.20365 -47.67383 13917 ft 163 kts 213°
2026-04-23 03:11 -22.21400 -47.67916 13984 ft 170 kts 205°
2026-04-23 03:12 -22.22623 -47.67887 13999 ft 187 kts 169°
2026-04-23 03:12 -22.23734 -47.67085 14015 ft 198 kts 141°
2026-04-23 03:12 -22.24670 -47.65966 14011 ft 203 kts 134°
2026-04-23 03:12 -22.25572 -47.64777 14004 ft 205 kts 133°
2026-04-23 03:13 -22.26467 -47.63571 14001 ft 206 kts 133°
2026-04-23 03:13 -22.27360 -47.62358 14001 ft 207 kts 133°
2026-04-23 03:13 -22.28255 -47.61141 14000 ft 207 kts 133°
2026-04-23 03:13 -22.29149 -47.59924 14000 ft 207 kts 133°
2026-04-23 03:14 -22.30048 -47.58701 14000 ft 207 kts 133°
2026-04-23 03:14 -22.30934 -47.57494 14000 ft 207 kts 133°
2026-04-23 03:14 -22.31830 -47.56274 14000 ft 207 kts 133°
2026-04-23 03:14 -22.32722 -47.55058 13999 ft 205 kts 133°
2026-04-23 03:15 -22.33608 -47.53850 13999 ft 205 kts 133°
2026-04-23 03:15 -22.34491 -47.52643 13999 ft 204 kts 133°
2026-04-23 03:15 -22.35390 -47.51418 14005 ft 213 kts 133°
2026-04-23 03:15 -22.36333 -47.50140 14007 ft 221 kts 133°
2026-04-23 03:16 -22.37316 -47.48816 14006 ft 230 kts 133°
2026-04-23 03:16 -22.38317 -47.47472 14000 ft 227 kts 133°
2026-04-23 03:16 -22.39461 -47.44434 13996 ft 225 kts 84°
2026-04-23 03:17 -22.38950 -47.42895 14009 ft 218 kts 56°
2026-04-23 03:17 -22.38001 -47.41667 14004 ft 208 kts 34°
2026-04-23 03:17 -22.36753 -47.41005 13998 ft 195 kts
2026-04-23 03:17 -22.35456 -47.41085 14005 ft 182 kts 337°
2026-04-23 03:18 -22.34374 -47.41708 14009 ft 174 kts 318°
2026-04-23 03:18 -22.33450 -47.42542 14005 ft 173 kts 313°
2026-04-23 03:18 -22.32570 -47.43433 14001 ft 173 kts 311°
2026-04-23 03:18 -22.31687 -47.44362 14004 ft 182 kts 310°
2026-04-23 03:19 -22.30756 -47.45364 13600 ft 203 kts 310°
2026-04-23 03:19 -22.29716 -47.46514 12931 ft 224 kts 310°
2026-04-23 03:19 -22.28981 -47.47289 14980 ft 18 kts 143°
2026-04-23 03:19 -22.29360 -47.46695 15055 ft 146 kts 134°
2026-04-23 03:20 -22.29347 -47.46419 9669 ft 267 kts 326°
2026-04-23 03:20 -22.27953 -47.46594 10746 ft 180 kts 30°
2026-04-23 03:20 -22.27834 -47.45272 10001 ft 218 kts 134°
2026-04-23 03:20 -22.29189 -47.44775 9791 ft 206 kts 184°
2026-04-23 03:21 -22.30450 -47.44888 10715 ft 158 kts 197°
2026-04-23 03:21 -22.31428 -47.45345 11131 ft 150 kts 232°
2026-04-23 03:21 -22.31651 -47.46371 11487 ft 148 kts 285°
2026-04-23 03:21 -22.30916 -47.47228 11583 ft 176 kts 327°
2026-04-23 03:22 -22.29792 -47.47682 12116 ft 171 kts 338°
2026-04-23 03:22 -22.28620 -47.47825 12410 ft 171 kts 350°
2026-04-23 03:22 -22.27363 -47.47866 12565 ft 190 kts 352°
2026-04-23 03:22 -22.26025 -47.47845 12741 ft 199 kts 356°
2026-04-23 03:23 -22.24576 -47.47839 12805 ft 214 kts 352°
2026-04-23 03:23 -22.23073 -47.47921 12893 ft 218 kts 352°
2026-04-23 03:23 -22.21570 -47.47994 12963 ft 214 kts 350°
2026-04-23 03:23 -22.20128 -47.48092 12986 ft 203 kts 352°
2026-04-23 03:24 -22.18781 -47.48119 13094 ft 185 kts 352°
2026-04-23 03:24 -22.17529 -47.48112 12936 ft 178 kts 354°
2026-04-23 03:24 -22.16288 -47.48092 12779 ft 180 kts 353°
2026-04-23 03:24 -22.14962 -47.48077 12792 ft 202 kts 354°
2026-04-23 03:25 -22.13449 -47.48061 12101 ft 236 kts 355°
2026-04-23 03:25 -22.11757 -47.48026 11369 ft 246 kts 356°
2026-04-23 03:25 -22.11405 -47.47942 13237 ft 105 kts 189°
2026-04-23 03:25 -22.10586 -47.47572 11077 ft 220 kts 15°
2026-04-23 03:26 -22.09407 -47.47048 10942 ft 173 kts 15°
2026-04-23 03:26 -22.08374 -47.46553 10800 ft 159 kts 18°
2026-04-23 03:26 -22.07255 -47.46081 10829 ft 180 kts 10°
2026-04-23 03:26 -22.06028 -47.45744 10804 ft 183 kts
2026-04-23 03:27 -22.04783 -47.45355 10743 ft 188 kts 14°
2026-04-23 03:27 -22.03624 -47.44759 10878 ft 184 kts 22°
2026-04-23 03:27 -22.02452 -47.44115 10735 ft 193 kts 20°
2026-04-23 03:27 -22.01229 -47.43496 10563 ft 195 kts 18°
2026-04-23 03:28 -22.00000 -47.42898 10397 ft 197 kts 18°
2026-04-23 03:28 -21.98743 -47.42304 10229 ft 198 kts 17°
2026-04-23 03:28 -21.97476 -47.41721 10087 ft 198 kts 17°
2026-04-23 03:28 -21.96209 -47.41153 10016 ft 195 kts 16°
2026-04-23 03:29 -21.94958 -47.40605 10000 ft 192 kts 15°
2026-04-23 03:29 -21.94139 -47.40257 10001 ft 191 kts 14°
2026-04-23 03:29 -21.92891 -47.39778 10000 ft 189 kts 12°
2026-04-23 03:29 -21.91639 -47.39333 10001 ft 190 kts 11°
2026-04-23 03:30 -21.89958 -47.38783 9999 ft 187 kts
2026-04-23 03:30 -21.89124 -47.38527 9999 ft 187 kts
2026-04-23 03:30 -21.87866 -47.38333 9963 ft 179 kts 345°
2026-04-23 03:30 -21.86808 -47.38912 9832 ft 172 kts 311°
2026-04-23 03:31 -21.86261 -47.40026 9694 ft 170 kts 282°
2026-04-23 03:31 -21.86201 -47.41295 9556 ft 172 kts 266°
2026-04-23 03:31 -21.86400 -47.42569 9400 ft 174 kts 256°
2026-04-23 03:31 -21.86905 -47.43769 9187 ft 180 kts 239°
2026-04-23 03:32 -21.87832 -47.44683 8935 ft 184 kts 213°
2026-04-23 03:32 -21.89108 -47.44934 8698 ft 193 kts 184°
2026-04-23 03:32 -21.90458 -47.44864 8469 ft 195 kts 183°
2026-04-23 03:32 -21.91815 -47.44777 8219 ft 194 kts 182°
2026-04-23 03:33 -21.93149 -47.44676 7966 ft 191 kts 182°
2026-04-23 03:33 -21.94469 -47.44563 7715 ft 189 kts 181°
2026-04-23 03:33 -21.95764 -47.44439 7461 ft 184 kts 181°
2026-04-23 03:33 -21.97026 -47.44305 7209 ft 181 kts 180°
2026-04-23 03:34 -21.98271 -47.44162 6958 ft 179 kts 180°
2026-04-23 03:34 -21.99496 -47.44012 6710 ft 179 kts 180°
2026-04-23 03:34 -22.00731 -47.43855 6458 ft 179 kts 179°
2026-04-23 03:34 -22.01979 -47.43705 6208 ft 182 kts 178°
2026-04-23 03:35 -22.03243 -47.43570 5959 ft 183 kts 176°
2026-04-23 03:35 -22.04516 -47.43451 5710 ft 183 kts 176°
2026-04-23 03:35 -22.05777 -47.43348 5460 ft 179 kts 176°
2026-04-23 03:35 -22.07005 -47.43257 5209 ft 175 kts 176°
2026-04-23 03:36 -22.08212 -47.43149 4957 ft 174 kts 174°
2026-04-23 03:36 -22.09408 -47.42996 4707 ft 171 kts 171°
2026-04-23 03:36 -22.10522 -47.42659 4390 ft 169 kts 154°
2026-04-23 03:36 -22.11360 -47.41776 4080 ft 170 kts 123°
2026-04-23 03:37 -22.11818 -47.40581 3755 ft 180 kts 105°
2026-04-23 03:37 -22.11975 -47.39239 3586 ft 179 kts 90°
2026-04-23 03:37 -22.11801 -47.37932 3510 ft 174 kts 70°
2026-04-23 03:37 -22.11340 -47.36751 3511 ft 169 kts 65°
2026-04-23 03:38 -22.10790 -47.35611 3505 ft 174 kts 60°
2026-04-23 03:38 -22.10083 -47.34547 3505 ft 176 kts 47°
2026-04-23 03:38 -22.09060 -47.33847 3498 ft 176 kts 17°
2026-04-23 03:38 -22.07846 -47.33781 3522 ft 175 kts 357°
2026-04-23 03:39 -22.06634 -47.33851 3507 ft 177 kts 357°
2026-04-23 03:39 -22.05401 -47.33914 3501 ft 178 kts 357°
2026-04-23 03:39 -22.04167 -47.33989 3500 ft 178 kts 356°
2026-04-23 03:39 -22.02931 -47.34039 3502 ft 177 kts 360°
2026-04-23 03:40 -22.01697 -47.34035 3501 ft 178 kts
2026-04-23 03:40 -22.00433 -47.34021 3505 ft 185 kts
2026-04-23 03:40 -21.99139 -47.34005 3500 ft 184 kts
2026-04-23 03:40 -21.97940 -47.34042 3898 ft 142 kts 341°
2026-04-23 03:41 -21.97271 -47.34967 3845 ft 191 kts 286°
2026-04-23 03:41 -21.97321 -47.36318 4048 ft 170 kts 243°
2026-04-23 03:41 -21.98252 -47.36946 3862 ft 161 kts 188°
2026-04-23 03:41 -21.99392 -47.36792 3374 ft 171 kts 163°
2026-04-23 03:42 -22.00463 -47.36290 3010 ft 165 kts 148°
2026-04-23 03:42 -22.01224 -47.35483 2714 ft 149 kts 124°
2026-04-23 03:42 -22.01369 -47.34477 2509 ft 136 kts 75°
2026-04-23 03:42 -22.00677 -47.34057 2305 ft 123 kts 355°
2026-04-23 03:43 -21.99916 -47.34102 2104 ft 99 kts
2026-04-23 03:43 -21.99262 -47.34114 1978 ft 90 kts
2026-04-23 03:43 -21.98723 -47.34120 1973 ft 52 kts
2026-04-23 03:43 -21.98482 -47.34117 1973 ft 23 kts
2026-04-23 03:44 -21.98413 -47.34094 1973 ft 9 kts 93°
2026-04-23 03:44 -21.98413 -47.34036 1973 ft 6 kts 90°
2026-04-23 03:44 -21.98412 -47.34008 1973 ft 7 kts 65°
2026-04-23 03:44 -21.98353 -47.34005 1973 ft 12 kts 360°
2026-04-23 03:45 -21.98264 -47.34005 1973 ft 13 kts 359°
2026-04-23 03:45 -21.98184 -47.34006 1973 ft 10 kts 359°
2026-04-23 03:45 -21.98157 -47.33984 1973 ft 4 kts 91°
2026-04-23 03:45 -21.98151 -47.33942 1973 ft 4 kts 12°
2026-04-23 03:46 -21.98099 -47.33942 1973 ft 8 kts 359°
2026-04-23 03:46 -21.98052 -47.33944 1973 ft 0 kts 334°
2026-04-23 03:46 -21.98050 -47.33961 1973 ft 2 kts 272°
2026-04-23 03:46 -21.98050 -47.33962 1973 ft 0 kts 272°